Time;durP1;ratioP1;P1;durP2;ratioP2;P2;SDS_P1;SDS_P2;PMS_P1;PMS_P2;Temp;Humidity;BMP_temperature;BMP_pressure;BME280_temperature;BME280_humidity;BME280_pressure;Samples;Min_cycle;Max_cycle;Signal;HPM_P1;HPM_P2
2022/06/24 00:02:19;;;;;;;6.55;2.50;;;;;;;;;;5110185;28;20044;-71
2022/06/24 00:04:56;;;;;;;5.45;2.38;;;;;;;;;;5114147;28;20039;-71
2022/06/24 00:07:22;;;;;;;4.78;2.38;;;;;;;;;;5110540;28;20047;-71
2022/06/24 00:09:48;;;;;;;10.30;2.40;;;;;;;;;;5111729;28;20067;-71
2022/06/24 00:12:16;;;;;;;5.63;2.50;;;;;;;;;;5115008;28;20123;-71
2022/06/24 00:14:45;;;;;;;11.75;2.60;;;;;;;;;;5111002;28;20058;-71
2022/06/24 00:17:11;;;;;;;5.78;2.50;;;;;;;;;;5113801;28;20043;-71
2022/06/24 00:19:56;;;;;;;7.03;2.70;;;;;;;;;;5113634;28;20123;-70
2022/06/24 00:22:22;;;;;;;8.73;2.58;;;;;;;;;;5112923;28;20083;-71
2022/06/24 00:24:48;;;;;;;7.95;3.03;;;;;;;;;;5114757;28;20050;-71
2022/06/24 00:27:22;;;;;;;7.18;2.40;;;;;;;;;;5112530;28;20043;-70
2022/06/24 00:29:48;;;;;;;5.00;2.60;;;;;;;;;;5112531;28;20490;-71
2022/06/24 00:32:14;;;;;;;5.32;2.47;;;;;;;;;;5113766;28;20062;-71
2022/06/24 00:34:41;;;;;;;6.72;2.60;;;;;;;;;;5110993;28;20508;-70
2022/06/24 00:37:26;;;;;;;6.07;3.00;;;;;;;;;;5111773;28;20051;-71
2022/06/24 00:39:53;;;;;;;7.15;2.90;;;;;;;;;;5114381;28;20043;-71
2022/06/24 00:42:20;;;;;;;5.85;3.20;;;;;;;;;;5094471;28;20080;-71
2022/06/24 00:44:51;;;;;;;7.05;4.10;;;;;;;;;;5101470;28;20031;-71
2022/06/24 00:47:17;;;;;;;5.63;3.20;;;;;;;;;;5080686;28;20426;-70
2022/06/24 00:49:46;;;;;;;8.27;4.35;;;;;;;;;;5113407;28;20459;-71
2022/06/24 00:52:12;;;;;;;11.23;5.90;;;;;;;;;;5093712;28;20086;-71
2022/06/24 00:54:38;;;;;;;14.35;7.35;;;;;;;;;;5112407;28;20443;-70
2022/06/24 00:57:05;;;;;;;10.05;5.13;;;;;;;;;;5099634;28;20043;-70
2022/06/24 00:59:34;;;;;;;5.63;3.40;;;;;;;;;;5094910;28;20125;-71
2022/06/24 01:02:04;;;;;;;5.82;3.33;;;;;;;;;;5112361;28;20076;-71
2022/06/24 01:04:34;;;;;;;6.53;3.15;;;;;;;;;;5110584;28;20039;-71
2022/06/24 01:07:00;;;;;;;6.80;3.10;;;;;;;;;;5111616;28;20047;-71
2022/06/24 01:09:27;;;;;;;5.78;3.00;;;;;;;;;;5111683;28;20447;-71
2022/06/24 01:11:53;;;;;;;6.03;3.00;;;;;;;;;;5113907;28;20050;-71
2022/06/24 01:14:19;;;;;;;6.13;2.75;;;;;;;;;;5112196;28;20521;-70
2022/06/24 01:16:45;;;;;;;8.07;2.80;;;;;;;;;;5112714;28;20126;-71
2022/06/24 01:19:12;;;;;;;4.85;2.60;;;;;;;;;;5113015;28;20050;-72
2022/06/24 01:21:42;;;;;;;8.40;2.90;;;;;;;;;;5112717;28;20490;-71
2022/06/24 01:24:10;;;;;;;6.05;2.60;;;;;;;;;;5107310;28;20036;-71
2022/06/24 01:26:37;;;;;;;8.93;2.80;;;;;;;;;;5103443;28;20039;-70
2022/06/24 01:29:03;;;;;;;6.25;2.50;;;;;;;;;;5112394;28;20431;-71
2022/06/24 01:31:29;;;;;;;7.18;2.83;;;;;;;;;;5110584;28;20077;-70
2022/06/24 01:33:56;;;;;;;7.60;2.60;;;;;;;;;;5113498;28;20066;-71
2022/06/24 01:36:22;;;;;;;6.07;2.50;;;;;;;;;;5108634;28;20065;-71
2022/06/24 01:38:48;;;;;;;7.65;2.83;;;;;;;;;;5110955;28;20050;-71
2022/06/24 01:41:14;;;;;;;7.30;2.88;;;;;;;;;;5113252;28;20438;-71
2022/06/24 01:43:41;;;;;;;6.47;2.55;;;;;;;;;;5112571;28;20036;-71
2022/06/24 01:46:07;;;;;;;5.50;2.47;;;;;;;;;;5110394;28;20107;-71
2022/06/24 01:48:33;;;;;;;5.88;3.00;;;;;;;;;;5089079;28;20525;-71
2022/06/24 01:50:59;;;;;;;6.60;3.10;;;;;;;;;;5092920;28;20044;-72
2022/06/24 01:53:25;;;;;;;8.02;2.90;;;;;;;;;;5090836;28;20044;-71
2022/06/24 01:55:51;;;;;;;7.80;3.80;;;;;;;;;;5090317;28;20115;-71
2022/06/24 01:58:17;;;;;;;8.57;4.97;;;;;;;;;;5088101;28;20198;-71
2022/06/24 02:00:43;;;;;;;8.75;6.03;;;;;;;;;;5089022;28;20043;-72
2022/06/24 02:03:09;;;;;;;12.32;6.20;;;;;;;;;;5073826;28;20071;-71
2022/06/24 02:05:35;;;;;;;8.23;4.13;;;;;;;;;;5089652;28;20121;-71
2022/06/24 02:08:01;;;;;;;7.65;3.30;;;;;;;;;;5091319;28;20519;-71
2022/06/24 02:13:28;;;;;;;6.32;3.22;;;;;;;;;;5096787;28;20487;-71
2022/06/24 02:15:58;;;;;;;6.88;3.65;;;;;;;;;;5093319;28;20505;-71
2022/06/24 02:18:25;;;;;;;8.20;3.70;;;;;;;;;;5094426;28;20078;-71
2022/06/24 02:20:51;;;;;;;7.07;3.83;;;;;;;;;;5094489;28;20051;-72
2022/06/24 02:23:20;;;;;;;6.95;3.70;;;;;;;;;;5094857;28;20063;-71
2022/06/24 02:25:47;;;;;;;6.18;3.75;;;;;;;;;;5095340;28;20409;-72
2022/06/24 02:28:13;;;;;;;7.90;3.72;;;;;;;;;;5087366;28;20043;-71
2022/06/24 02:30:40;;;;;;;6.88;3.58;;;;;;;;;;5095516;28;20512;-71
2022/06/24 02:33:06;;;;;;;7.43;3.20;;;;;;;;;;5095401;28;20047;-71
2022/06/24 02:35:33;;;;;;;7.85;3.38;;;;;;;;;;5092584;28;20486;-72
2022/06/24 02:37:59;;;;;;;6.78;3.28;;;;;;;;;;5076190;28;20055;-71
2022/06/24 02:43:17;;;;;;;5.75;3.20;;;;;;;;;;5096245;28;20048;-71
2022/06/24 02:45:51;;;;;;;10.20;3.40;;;;;;;;;;5092133;28;20093;-72
2022/06/24 02:48:17;;;;;;;8.35;3.30;;;;;;;;;;5061342;28;20088;-71
2022/06/24 02:50:44;;;;;;;7.10;3.40;;;;;;;;;;5074289;28;20053;-72
2022/06/24 02:53:10;;;;;;;5.70;3.33;;;;;;;;;;5075759;28;20505;-72
2022/06/24 02:55:37;;;;;;;7.93;3.50;;;;;;;;;;5074054;28;20044;-71
2022/06/24 02:58:04;;;;;;;8.05;3.38;;;;;;;;;;5067766;28;20102;-72
2022/06/24 03:00:30;;;;;;;8.93;3.50;;;;;;;;;;5071906;28;20486;-71
2022/06/24 03:02:56;;;;;;;8.82;3.45;;;;;;;;;;5073518;28;20122;-71
2022/06/24 03:05:22;;;;;;;6.07;3.20;;;;;;;;;;5074064;28;20048;-71
2022/06/24 03:07:48;;;;;;;8.55;3.28;;;;;;;;;;5075062;28;20044;-71
2022/06/24 03:10:15;;;;;;;11.15;4.68;;;;;;;;;;5073478;28;20060;-71
2022/06/24 03:12:41;;;;;;;10.40;3.80;;;;;;;;;;5074142;28;20403;-71
2022/06/24 03:15:07;;;;;;;9.52;3.78;;;;;;;;;;5074044;28;20102;-72
2022/06/24 03:17:33;;;;;;;10.70;3.90;;;;;;;;;;5073707;28;20040;-71
2022/06/24 03:19:59;;;;;;;7.30;3.42;;;;;;;;;;5073919;28;20078;-72
2022/06/24 03:22:25;;;;;;;7.13;3.30;;;;;;;;;;5070162;28;20071;-72
2022/06/24 03:24:52;;;;;;;7.25;3.50;;;;;;;;;;5073209;28;20517;-71
2022/06/24 03:27:18;;;;;;;6.38;3.50;;;;;;;;;;5071031;28;20044;-71
2022/06/24 03:29:44;;;;;;;7.60;3.42;;;;;;;;;;5073925;28;20040;-72
2022/06/24 03:32:10;;;;;;;6.72;3.70;;;;;;;;;;5074998;28;20040;-70
2022/06/24 03:34:36;;;;;;;6.90;3.92;;;;;;;;;;5074137;28;20059;-71
2022/06/24 03:37:02;;;;;;;5.43;3.50;;;;;;;;;;5074845;28;20117;-71
2022/06/24 03:39:28;;;;;;;7.38;3.42;;;;;;;;;;5072736;28;20041;-71
2022/06/24 03:41:54;;;;;;;7.85;4.00;;;;;;;;;;5075010;28;20462;-71
2022/06/24 03:44:20;;;;;;;6.85;3.47;;;;;;;;;;5073624;28;20052;-71
2022/06/24 03:46:46;;;;;;;9.02;3.80;;;;;;;;;;5075227;28;20033;-71
2022/06/24 03:49:12;;;;;;;6.75;3.97;;;;;;;;;;5114067;28;20378;-72
2022/06/24 03:51:38;;;;;;;7.38;4.22;;;;;;;;;;5111133;28;20043;-69
2022/06/24 03:54:04;;;;;;;6.95;3.50;;;;;;;;;;5114728;28;20043;-70
2022/06/24 03:56:30;;;;;;;7.22;3.72;;;;;;;;;;5113668;28;20036;-71
2022/06/24 03:58:56;;;;;;;6.10;3.70;;;;;;;;;;5113578;28;20043;-72
2022/06/24 04:01:22;;;;;;;8.07;3.90;;;;;;;;;;5106031;28;20418;-71
2022/06/24 04:03:48;;;;;;;7.20;3.72;;;;;;;;;;5114280;28;20089;-71
2022/06/24 04:06:14;;;;;;;7.40;4.30;;;;;;;;;;5112734;28;20079;-71
2022/06/24 04:08:40;;;;;;;7.63;4.05;;;;;;;;;;5114721;28;20048;-70
2022/06/24 04:11:13;;;;;;;7.55;4.00;;;;;;;;;;5115082;28;20040;-71
2022/06/24 04:13:39;;;;;;;9.65;3.67;;;;;;;;;;5104940;28;20054;-72
2022/06/24 04:16:05;;;;;;;9.57;3.97;;;;;;;;;;5108587;28;20067;-73
2022/06/24 04:18:31;;;;;;;6.35;3.45;;;;;;;;;;5111327;28;20069;-71
2022/06/24 04:20:57;;;;;;;19.98;4.72;;;;;;;;;;5113221;28;20046;-72
2022/06/24 04:23:24;;;;;;;12.50;3.90;;;;;;;;;;5114337;28;20047;-71
2022/06/24 04:25:51;;;;;;;7.22;3.30;;;;;;;;;;5114123;28;20079;-71
2022/06/24 04:28:17;;;;;;;6.03;3.20;;;;;;;;;;5113811;28;20049;-71
2022/06/24 04:30:43;;;;;;;6.18;3.33;;;;;;;;;;5113365;28;20118;-71
2022/06/24 04:33:09;;;;;;;10.68;4.03;;;;;;;;;;5112742;28;20066;-70
2022/06/24 04:35:35;;;;;;;6.70;3.88;;;;;;;;;;5112927;28;20075;-71
2022/06/24 04:38:01;;;;;;;8.10;4.03;;;;;;;;;;5114121;28;20135;-71
2022/06/24 04:40:27;;;;;;;6.15;3.80;;;;;;;;;;5095373;28;20040;-71
2022/06/24 04:42:54;;;;;;;7.07;3.67;;;;;;;;;;5114055;28;20082;-72
2022/06/24 04:45:20;;;;;;;5.95;3.50;;;;;;;;;;5109365;27;20734;-72
2022/06/24 04:47:46;;;;;;;6.82;3.20;;;;;;;;;;5084823;28;20957;-72
2022/06/24 04:50:12;;;;;;;8.15;3.72;;;;;;;;;;5066409;28;20119;-72
2022/06/24 04:52:39;;;;;;;7.88;3.63;;;;;;;;;;5075321;28;20124;-70
2022/06/24 04:55:06;;;;;;;7.72;3.78;;;;;;;;;;5053500;28;20092;-72
2022/06/24 04:57:32;;;;;;;10.63;3.72;;;;;;;;;;5061871;28;20056;-71
2022/06/24 04:59:58;;;;;;;7.15;4.07;;;;;;;;;;5085730;28;20391;-70
2022/06/24 05:02:24;;;;;;;7.82;3.72;;;;;;;;;;5093396;28;20417;-72
2022/06/24 05:04:51;;;;;;;10.27;3.83;;;;;;;;;;5077113;28;20052;-72
2022/06/24 05:07:17;;;;;;;7.93;4.20;;;;;;;;;;5054678;28;20087;-71
2022/06/24 05:09:43;;;;;;;10.13;3.60;;;;;;;;;;5053215;28;20045;-71
2022/06/24 05:12:10;;;;;;;9.05;3.97;;;;;;;;;;5055269;28;20040;-70
2022/06/24 05:14:36;;;;;;;8.35;3.90;;;;;;;;;;5071227;28;20433;-70
2022/06/24 05:17:02;;;;;;;10.70;3.85;;;;;;;;;;5085552;28;20078;-71
2022/06/24 05:19:28;;;;;;;7.65;3.63;;;;;;;;;;5069534;28;20410;-71
2022/06/24 05:21:54;;;;;;;7.78;3.45;;;;;;;;;;5069126;28;20106;-71
2022/06/24 05:24:22;;;;;;;7.70;4.00;;;;;;;;;;5067468;28;20036;-71
2022/06/24 05:26:48;;;;;;;8.73;3.67;;;;;;;;;;5071122;28;20175;-71
2022/06/24 05:29:14;;;;;;;20.80;6.10;;;;;;;;;;5072613;28;20051;-71
2022/06/24 05:31:40;;;;;;;10.88;4.75;;;;;;;;;;5066903;28;20048;-71
2022/06/24 05:34:07;;;;;;;9.30;5.13;;;;;;;;;;5070123;28;20498;-71
2022/06/24 05:36:34;;;;;;;9.07;4.70;;;;;;;;;;5054538;28;20048;-72
2022/06/24 05:39:06;;;;;;;11.15;5.05;;;;;;;;;;5056629;28;20052;-71
2022/06/24 05:41:33;;;;;;;8.23;5.55;;;;;;;;;;5072423;28;20441;-71
2022/06/24 05:44:00;;;;;;;7.97;5.72;;;;;;;;;;5070046;28;20044;-71
2022/06/24 05:46:26;;;;;;;12.43;7.20;;;;;;;;;;5067966;28;20122;-71
2022/06/24 05:48:52;;;;;;;11.80;7.95;;;;;;;;;;5110632;28;20509;-73
2022/06/24 05:51:18;;;;;;;11.07;8.13;;;;;;;;;;5111682;28;20058;-72
2022/06/24 05:56:30;;;;;;;15.43;9.15;;;;;;;;;;5112439;28;20052;-70
2022/06/24 05:58:57;;;;;;;16.05;8.73;;;;;;;;;;5112345;28;20059;-71
2022/06/24 06:01:23;;;;;;;13.15;9.02;;;;;;;;;;5112160;28;20477;-71
2022/06/24 06:03:49;;;;;;;13.35;9.35;;;;;;;;;;5111457;28;20501;-70
2022/06/24 06:06:15;;;;;;;13.15;8.82;;;;;;;;;;5111816;28;20035;-71
2022/06/24 06:08:41;;;;;;;13.85;8.98;;;;;;;;;;5099424;28;20044;-72
2022/06/24 06:11:11;;;;;;;12.20;8.95;;;;;;;;;;5092647;28;20399;-71
2022/06/24 06:13:38;;;;;;;14.43;10.10;;;;;;;;;;5093619;28;20055;-71
2022/06/24 06:16:04;;;;;;;11.75;8.68;;;;;;;;;;5077275;28;20047;-71
2022/06/24 06:18:30;;;;;;;13.13;10.00;;;;;;;;;;5112972;28;20493;-71
2022/06/24 06:21:03;;;;;;;14.02;9.52;;;;;;;;;;5094830;28;20090;-71
2022/06/24 06:23:29;;;;;;;13.90;10.55;;;;;;;;;;5112175;28;20100;-72
2022/06/24 06:26:00;;;;;;;12.57;10.13;;;;;;;;;;5093579;28;20044;-72
2022/06/24 06:28:26;;;;;;;12.80;10.00;;;;;;;;;;5092378;28;20048;-72
2022/06/24 06:30:52;;;;;;;15.25;11.30;;;;;;;;;;5070247;28;20376;-72
2022/06/24 06:33:18;;;;;;;12.70;10.20;;;;;;;;;;5110795;28;20031;-71
2022/06/24 06:35:45;;;;;;;12.18;10.68;;;;;;;;;;5110139;28;20054;-72
2022/06/24 06:38:11;;;;;;;12.75;10.45;;;;;;;;;;5112670;28;20051;-71
2022/06/24 06:40:37;;;;;;;14.82;10.93;;;;;;;;;;5110809;28;20035;-71
2022/06/24 06:43:05;;;;;;;14.05;11.45;;;;;;;;;;5111934;28;20378;-72
2022/06/24 06:45:32;;;;;;;14.70;11.82;;;;;;;;;;5111646;28;20054;-72
2022/06/24 06:47:58;;;;;;;16.63;12.02;;;;;;;;;;5112446;28;20052;-70
2022/06/24 06:50:24;;;;;;;18.00;12.38;;;;;;;;;;5094437;28;20050;-71
2022/06/24 06:52:50;;;;;;;15.07;11.63;;;;;;;;;;5092884;28;20048;-70
2022/06/24 06:55:16;;;;;;;16.67;11.88;;;;;;;;;;5112439;28;20497;-70
2022/06/24 06:57:42;;;;;;;12.88;10.02;;;;;;;;;;5120142;27;20043;-71
2022/06/24 07:00:11;;;;;;;14.80;11.13;;;;;;;;;;5098221;28;20039;-72
2022/06/24 07:02:38;;;;;;;14.50;10.88;;;;;;;;;;5097612;28;20036;-71
2022/06/24 07:05:05;;;;;;;15.02;10.93;;;;;;;;;;5115508;28;20043;-70
2022/06/24 07:07:31;;;;;;;11.70;9.75;;;;;;;;;;5116187;28;20042;-70
2022/06/24 07:09:57;;;;;;;12.98;10.20;;;;;;;;;;5112939;28;20051;-69
2022/06/24 07:12:23;;;;;;;13.90;10.18;;;;;;;;;;5114687;28;20075;-70
2022/06/24 07:14:50;;;;;;;12.05;10.10;;;;;;;;;;5115738;28;20044;-70
2022/06/24 07:17:17;;;;;;;11.95;9.23;;;;;;;;;;5115992;28;20044;-71
2022/06/24 07:19:43;;;;;;;14.40;9.40;;;;;;;;;;5115858;28;20035;-70
2022/06/24 07:22:09;;;;;;;12.50;8.48;;;;;;;;;;5114539;28;20474;-70
2022/06/24 07:24:35;;;;;;;11.40;8.38;;;;;;;;;;5121619;27;20123;-71
2022/06/24 07:27:05;;;;;;;12.48;9.35;;;;;;;;;;5115811;28;20032;-71
2022/06/24 07:29:34;;;;;;;12.75;8.10;;;;;;;;;;5116243;28;20039;-71
2022/06/24 07:32:01;;;;;;;11.75;8.35;;;;;;;;;;5115661;28;20083;-71
2022/06/24 07:34:27;;;;;;;11.90;8.45;;;;;;;;;;5080627;28;20089;-71
2022/06/24 07:36:56;;;;;;;12.25;8.55;;;;;;;;;;5098617;27;20069;-71
2022/06/24 07:39:22;;;;;;;12.30;9.15;;;;;;;;;;5118662;27;20131;-71
2022/06/24 07:41:48;;;;;;;13.63;9.35;;;;;;;;;;5105066;27;20569;-71
2022/06/24 07:44:14;;;;;;;14.02;9.38;;;;;;;;;;5095434;28;20048;-71
2022/06/24 07:46:40;;;;;;;12.32;8.43;;;;;;;;;;5109775;28;20051;-71
2022/06/24 07:49:06;;;;;;;11.75;8.57;;;;;;;;;;5115342;28;20051;-70
2022/06/24 07:51:32;;;;;;;11.63;8.75;;;;;;;;;;5104796;28;20092;-70
2022/06/24 07:53:58;;;;;;;12.43;8.30;;;;;;;;;;5115078;28;20482;-71
2022/06/24 07:59:09;;;;;;;10.75;8.30;;;;;;;;;;5114726;28;20047;-71
2022/06/24 08:01:35;;;;;;;9.70;7.85;;;;;;;;;;5114896;28;20518;-71
2022/06/24 08:04:07;;;;;;;9.95;7.85;;;;;;;;;;5112662;28;20044;-71
2022/06/24 08:06:33;;;;;;;10.38;7.63;;;;;;;;;;5104703;28;20047;-69
2022/06/24 08:09:00;;;;;;;12.35;7.95;;;;;;;;;;5114035;28;20431;-71
2022/06/24 08:11:26;;;;;;;10.95;7.20;;;;;;;;;;5114954;28;20122;-71
2022/06/24 08:13:52;;;;;;;9.63;7.45;;;;;;;;;;5114032;28;20131;-71
2022/06/24 08:16:18;;;;;;;10.70;7.03;;;;;;;;;;5113288;28;20611;-71
2022/06/24 08:18:44;;;;;;;9.80;7.72;;;;;;;;;;5112476;28;20119;-71
2022/06/24 08:21:10;;;;;;;13.13;7.63;;;;;;;;;;5113978;28;20122;-71
2022/06/24 08:23:36;;;;;;;11.98;7.15;;;;;;;;;;5114751;28;20162;-71
2022/06/24 08:26:02;;;;;;;9.52;7.40;;;;;;;;;;5114521;28;20048;-71
2022/06/24 08:28:28;;;;;;;8.82;6.38;;;;;;;;;;5113827;28;20050;-71
2022/06/24 08:30:54;;;;;;;8.63;6.05;;;;;;;;;;5114326;28;20097;-71
2022/06/24 08:33:20;;;;;;;8.35;5.78;;;;;;;;;;5113928;28;20110;-71
2022/06/24 08:35:46;;;;;;;8.23;6.10;;;;;;;;;;5114523;28;20044;-71
2022/06/24 08:38:13;;;;;;;7.82;6.05;;;;;;;;;;5095400;28;20123;-71
2022/06/24 08:40:39;;;;;;;9.02;6.10;;;;;;;;;;5114301;28;20051;-71
2022/06/24 08:43:05;;;;;;;7.97;5.80;;;;;;;;;;5113251;28;20054;-70
2022/06/24 08:45:31;;;;;;;8.85;6.50;;;;;;;;;;5111758;28;20486;-71
2022/06/24 08:47:57;;;;;;;9.50;5.57;;;;;;;;;;5112719;28;20047;-71
2022/06/24 08:50:24;;;;;;;8.55;5.65;;;;;;;;;;5095668;28;20052;-70
2022/06/24 08:52:51;;;;;;;9.80;6.25;;;;;;;;;;5112861;28;20040;-70
2022/06/24 08:55:19;;;;;;;9.35;6.18;;;;;;;;;;5105805;28;20040;-70
2022/06/24 08:57:46;;;;;;;8.23;6.30;;;;;;;;;;5112086;28;20050;-70
2022/06/24 09:00:12;;;;;;;10.77;6.90;;;;;;;;;;5111986;28;20046;-70
2022/06/24 09:02:39;;;;;;;10.02;6.40;;;;;;;;;;5094265;28;20051;-70
2022/06/24 09:05:09;;;;;;;8.02;6.65;;;;;;;;;;5095335;28;20047;-70
2022/06/24 09:07:35;;;;;;;8.85;6.07;;;;;;;;;;5113143;28;20127;-70
2022/06/24 09:10:03;;;;;;;10.98;7.05;;;;;;;;;;5108291;28;20374;-70
2022/06/24 09:12:42;;;;;;;8.82;6.95;;;;;;;;;;5112595;28;20170;-70
2022/06/24 09:15:09;;;;;;;8.48;5.97;;;;;;;;;;5123010;27;20511;-70
2022/06/24 09:17:36;;;;;;;11.25;6.65;;;;;;;;;;5108671;28;20054;-71
2022/06/24 09:20:05;;;;;;;9.48;6.78;;;;;;;;;;5109276;28;20160;-70
2022/06/24 09:22:32;;;;;;;9.38;6.63;;;;;;;;;;5113298;28;20036;-70
2022/06/24 09:25:00;;;;;;;8.32;7.00;;;;;;;;;;5092796;28;20077;-71
2022/06/24 09:27:27;;;;;;;8.32;6.25;;;;;;;;;;5109243;28;20047;-71
2022/06/24 09:29:53;;;;;;;7.70;5.90;;;;;;;;;;5094823;28;20077;-70
2022/06/24 09:32:19;;;;;;;9.55;6.57;;;;;;;;;;5122724;27;20039;-70
2022/06/24 09:35:04;;;;;;;7.68;5.68;;;;;;;;;;5115908;27;20532;-71
2022/06/24 09:37:38;;;;;;;9.02;6.63;;;;;;;;;;5110751;28;20040;-71
2022/06/24 09:40:23;;;;;;;8.05;5.97;;;;;;;;;;5094849;28;20044;-71
2022/06/24 09:42:53;;;;;;;8.23;6.07;;;;;;;;;;5094877;28;20558;-71
2022/06/24 09:45:19;;;;;;;8.40;6.13;;;;;;;;;;5112963;28;20405;-71
2022/06/24 09:47:51;;;;;;;7.30;6.13;;;;;;;;;;5113039;28;20058;-71
2022/06/24 09:50:18;;;;;;;8.13;6.50;;;;;;;;;;5113614;28;20417;-70
2022/06/24 09:52:44;;;;;;;9.93;7.40;;;;;;;;;;5078147;28;20125;-70
2022/06/24 09:55:10;;;;;;;8.70;7.00;;;;;;;;;;5113130;28;20452;-69
2022/06/24 09:57:38;;;;;;;9.25;7.35;;;;;;;;;;5113174;28;20042;-69
2022/06/24 10:02:50;;;;;;;10.35;7.50;;;;;;;;;;5095055;28;20143;-71
2022/06/24 10:05:18;;;;;;;10.07;8.23;;;;;;;;;;5112838;28;20536;-70
2022/06/24 10:07:46;;;;;;;17.65;10.57;;;;;;;;;;5109763;28;20039;-71
2022/06/24 10:10:12;;;;;;;21.90;11.18;;;;;;;;;;5112722;28;20071;-71
2022/06/24 10:12:46;;;;;;;19.13;12.20;;;;;;;;;;5106529;28;20507;-71
2022/06/24 10:15:18;;;;;;;17.98;11.57;;;;;;;;;;5107685;28;20112;-70
2022/06/24 10:17:46;;;;;;;10.02;6.00;;;;;;;;;;5109425;28;20439;-69
2022/06/24 10:20:13;;;;;;;7.57;4.78;;;;;;;;;;5116894;28;20044;-71
2022/06/24 10:22:42;;;;;;;7.72;6.05;;;;;;;;;;5111303;28;20067;-71
2022/06/24 10:25:08;;;;;;;9.85;6.50;;;;;;;;;;5094446;28;20122;-71
2022/06/24 10:27:53;;;;;;;7.68;4.43;;;;;;;;;;5112926;28;20049;-71
2022/06/24 10:30:38;;;;;;;7.90;2.55;;;;;;;;;;5114090;28;20370;-71
2022/06/24 10:33:14;;;;;;;6.35;2.40;;;;;;;;;;5116956;28;20054;-71
2022/06/24 10:35:57;;;;;;;9.18;2.78;;;;;;;;;;5097524;28;20049;-71
2022/06/24 10:38:23;;;;;;;5.55;1.80;;;;;;;;;;5115815;28;20412;-71
2022/06/24 10:40:50;;;;;;;5.20;1.67;;;;;;;;;;5099016;28;20042;-71
2022/06/24 10:43:42;;;;;;;3.80;1.65;;;;;;;;;;5115553;27;20444;-70
2022/06/24 10:46:16;;;;;;;3.67;1.70;;;;;;;;;;5108788;28;20052;-70
2022/06/24 10:48:47;;;;;;;4.88;2.20;;;;;;;;;;5115593;28;20086;-71
2022/06/24 10:51:20;;;;;;;7.10;2.00;;;;;;;;;;5098129;28;20564;-71
2022/06/24 10:54:01;;;;;;;4.70;2.08;;;;;;;;;;5115254;28;20040;-70
2022/06/24 10:56:40;;;;;;;6.72;2.90;;;;;;;;;;5112426;27;20031;-71
2022/06/24 10:59:06;;;;;;;5.68;2.70;;;;;;;;;;5117505;27;20040;-71
2022/06/24 11:01:32;;;;;;;5.90;2.90;;;;;;;;;;5089612;28;20089;-72
2022/06/24 11:04:05;;;;;;;6.30;2.90;;;;;;;;;;5115551;28;20046;-70
2022/06/24 11:06:31;;;;;;;5.50;2.50;;;;;;;;;;5116243;28;20069;-71
2022/06/24 11:09:05;;;;;;;6.05;2.95;;;;;;;;;;5107241;28;20073;-70
2022/06/24 11:11:32;;;;;;;6.82;2.67;;;;;;;;;;5102528;28;20035;-71
2022/06/24 11:13:58;;;;;;;5.30;2.80;;;;;;;;;;5091079;28;20043;-70
2022/06/24 11:16:28;;;;;;;5.65;2.80;;;;;;;;;;5114876;28;20118;-70
2022/06/24 11:18:55;;;;;;;5.38;2.78;;;;;;;;;;5097135;28;20044;-70
2022/06/24 11:21:21;;;;;;;5.47;2.53;;;;;;;;;;5112301;28;20035;-70
2022/06/24 11:23:48;;;;;;;4.90;2.10;;;;;;;;;;5114746;28;20054;-71
2022/06/24 11:26:18;;;;;;;5.00;2.13;;;;;;;;;;5115021;28;20042;-71
2022/06/24 11:28:51;;;;;;;5.75;2.30;;;;;;;;;;5114624;28;20047;-70
2022/06/24 11:31:27;;;;;;;4.97;2.00;;;;;;;;;;5097986;28;20443;-70
2022/06/24 11:33:53;;;;;;;4.60;2.65;;;;;;;;;;5114227;28;20048;-71
2022/06/24 11:36:21;;;;;;;4.50;2.33;;;;;;;;;;5114648;27;20051;-70
2022/06/24 11:38:50;;;;;;;5.47;2.22;;;;;;;;;;5097253;28;20441;-71
2022/06/24 11:41:22;;;;;;;4.85;2.50;;;;;;;;;;5094741;28;20087;-70
2022/06/24 11:43:52;;;;;;;5.40;2.40;;;;;;;;;;5111536;28;20047;-70
2022/06/24 11:46:18;;;;;;;5.40;2.45;;;;;;;;;;5111976;28;20062;-70
2022/06/24 11:48:44;;;;;;;5.38;2.53;;;;;;;;;;5114679;28;20130;-70
2022/06/24 11:51:17;;;;;;;5.00;2.50;;;;;;;;;;5109075;28;20048;-70
2022/06/24 11:53:55;;;;;;;4.22;2.28;;;;;;;;;;5095085;28;20054;-70
2022/06/24 11:56:22;;;;;;;5.75;2.20;;;;;;;;;;5103730;28;20065;-70
2022/06/24 11:58:48;;;;;;;7.63;2.30;;;;;;;;;;5112195;28;20110;-71
2022/06/24 12:01:14;;;;;;;5.07;2.22;;;;;;;;;;5108872;28;20047;-71
2022/06/24 12:03:40;;;;;;;5.18;2.20;;;;;;;;;;5114125;28;20031;-72
2022/06/24 12:06:06;;;;;;;5.25;2.28;;;;;;;;;;5094268;28;20047;-71
2022/06/24 12:08:32;;;;;;;6.95;2.75;;;;;;;;;;5104035;28;20048;-70
2022/06/24 12:10:58;;;;;;;4.18;2.30;;;;;;;;;;5111354;28;20051;-71
2022/06/24 12:13:34;;;;;;;6.25;2.60;;;;;;;;;;5110284;28;20044;-70
2022/06/24 12:16:00;;;;;;;5.90;2.50;;;;;;;;;;5113095;28;20040;-70
2022/06/24 12:18:27;;;;;;;7.47;2.80;;;;;;;;;;5104687;28;20092;-70
2022/06/24 12:20:57;;;;;;;6.28;2.90;;;;;;;;;;5114877;28;20044;-70
2022/06/24 12:23:23;;;;;;;6.50;3.17;;;;;;;;;;5113972;27;20036;-70
2022/06/24 12:25:50;;;;;;;6.78;3.20;;;;;;;;;;5115773;27;20298;-71
2022/06/24 12:28:24;;;;;;;8.18;3.55;;;;;;;;;;5113707;28;20046;-70
2022/06/24 12:30:56;;;;;;;8.27;3.38;;;;;;;;;;5095128;28;20043;-71
2022/06/24 12:33:24;;;;;;;6.15;3.90;;;;;;;;;;5111757;28;20096;-71
2022/06/24 12:36:02;;;;;;;7.18;3.65;;;;;;;;;;5111009;28;20044;-71
2022/06/24 12:38:28;;;;;;;7.45;4.00;;;;;;;;;;5095991;28;20116;-71
2022/06/24 12:40:54;;;;;;;8.52;4.25;;;;;;;;;;5091675;28;20477;-71
2022/06/24 12:43:20;;;;;;;7.78;4.53;;;;;;;;;;5094872;28;20412;-71
2022/06/24 12:45:46;;;;;;;7.38;4.35;;;;;;;;;;5111713;28;20520;-71
2022/06/24 12:50:57;;;;;;;10.07;5.95;;;;;;;;;;5093970;28;20052;-72
2022/06/24 12:53:23;;;;;;;8.23;5.53;;;;;;;;;;5112118;28;20122;-71
2022/06/24 12:55:49;;;;;;;8.48;4.93;;;;;;;;;;5112237;27;20044;-71
2022/06/24 12:58:15;;;;;;;8.77;5.80;;;;;;;;;;5094994;28;20133;-71
2022/06/24 13:00:42;;;;;;;9.98;6.20;;;;;;;;;;5112288;28;20409;-71
2022/06/24 13:03:08;;;;;;;9.77;5.78;;;;;;;;;;5114262;28;20086;-71
2022/06/24 13:05:34;;;;;;;8.30;5.65;;;;;;;;;;5113925;28;20040;-72
2022/06/24 13:08:00;;;;;;;8.85;6.57;;;;;;;;;;5113757;28;20090;-72
2022/06/24 13:10:26;;;;;;;9.63;6.70;;;;;;;;;;5109907;28;20084;-71
2022/06/24 13:12:52;;;;;;;9.52;7.00;;;;;;;;;;5113989;27;20054;-71
2022/06/24 13:15:18;;;;;;;10.38;8.02;;;;;;;;;;5111578;27;20042;-72
2022/06/24 13:17:45;;;;;;;9.55;8.20;;;;;;;;;;5112954;28;20075;-69
2022/06/24 13:20:12;;;;;;;9.20;7.82;;;;;;;;;;5093257;28;20086;-70
2022/06/24 13:22:38;;;;;;;11.30;8.18;;;;;;;;;;5093284;28;20050;-72
2022/06/24 13:25:05;;;;;;;11.63;8.80;;;;;;;;;;5108597;28;20132;-71
2022/06/24 13:27:31;;;;;;;11.30;8.65;;;;;;;;;;5108988;28;20417;-72
2022/06/24 13:29:58;;;;;;;11.52;8.77;;;;;;;;;;5111900;27;20047;-72
2022/06/24 13:32:24;;;;;;;10.77;8.52;;;;;;;;;;5109581;28;20493;-72
2022/06/24 13:34:50;;;;;;;9.75;8.15;;;;;;;;;;5090582;28;20043;-72
2022/06/24 13:37:17;;;;;;;10.10;8.00;;;;;;;;;;5093330;28;20395;-72
2022/06/24 13:39:43;;;;;;;12.70;8.98;;;;;;;;;;5093798;28;20451;-72
2022/06/24 13:42:09;;;;;;;10.52;8.30;;;;;;;;;;5111189;28;20047;-72
2022/06/24 13:44:36;;;;;;;10.43;7.03;;;;;;;;;;5113202;28;20130;-72
2022/06/24 13:47:02;;;;;;;9.73;8.30;;;;;;;;;;5109337;28;20417;-72
2022/06/24 13:49:28;;;;;;;10.82;8.50;;;;;;;;;;5110046;28;20054;-72
2022/06/24 13:51:54;;;;;;;9.95;8.15;;;;;;;;;;5105971;28;20093;-72
2022/06/24 13:54:20;;;;;;;10.10;8.48;;;;;;;;;;5107495;28;20619;-72
2022/06/24 13:56:46;;;;;;;12.55;8.38;;;;;;;;;;5108120;28;20510;-72
2022/06/24 13:59:15;;;;;;;10.88;8.20;;;;;;;;;;5091235;28;20055;-72
2022/06/24 14:01:42;;;;;;;9.77;8.15;;;;;;;;;;5111271;28;20040;-72
2022/06/24 14:04:08;;;;;;;10.32;7.35;;;;;;;;;;5102539;28;20039;-72
2022/06/24 14:06:34;;;;;;;8.82;7.10;;;;;;;;;;5114396;28;20409;-72
2022/06/24 14:09:00;;;;;;;11.00;8.15;;;;;;;;;;5094587;28;20043;-72
2022/06/24 14:11:26;;;;;;;9.60;8.23;;;;;;;;;;5098964;28;20039;-72
2022/06/24 14:13:52;;;;;;;10.10;7.78;;;;;;;;;;5109455;28;20043;-73
2022/06/24 14:16:18;;;;;;;8.85;7.30;;;;;;;;;;5113207;28;20055;-72
2022/06/24 14:18:44;;;;;;;8.80;6.80;;;;;;;;;;5114690;28;20495;-72
2022/06/24 14:21:10;;;;;;;8.90;6.38;;;;;;;;;;5113488;28;20055;-72
2022/06/24 14:26:21;;;;;;;9.55;5.90;;;;;;;;;;5116087;28;20130;-71
2022/06/24 14:28:47;;;;;;;7.97;5.80;;;;;;;;;;5115504;28;20380;-72
2022/06/24 14:31:13;;;;;;;7.65;6.10;;;;;;;;;;5116936;28;20043;-73
2022/06/24 14:33:39;;;;;;;8.35;6.30;;;;;;;;;;5115044;28;20473;-72
2022/06/24 14:36:05;;;;;;;8.48;5.97;;;;;;;;;;5110875;27;20043;-73
2022/06/24 14:41:16;;;;;;;7.75;6.95;;;;;;;;;;5096331;28;20446;-73
2022/06/24 14:43:43;;;;;;;9.23;7.20;;;;;;;;;;5112613;28;20039;-73
2022/06/24 14:46:09;;;;;;;10.27;6.97;;;;;;;;;;5097787;28;20156;-73
2022/06/24 14:48:35;;;;;;;8.70;7.80;;;;;;;;;;5090093;28;20047;-73
2022/06/24 14:51:01;;;;;;;9.85;6.45;;;;;;;;;;5110990;28;20105;-72
2022/06/24 14:53:28;;;;;;;9.18;6.80;;;;;;;;;;5112890;28;20044;-73
2022/06/24 14:55:54;;;;;;;8.15;5.88;;;;;;;;;;5116402;28;20186;-71
2022/06/24 14:58:20;;;;;;;9.07;6.32;;;;;;;;;;5110359;27;20559;-71
2022/06/24 15:00:46;;;;;;;9.55;6.75;;;;;;;;;;5102199;28;20043;-72
2022/06/24 15:03:12;;;;;;;7.97;6.18;;;;;;;;;;5114062;28;20055;-72